Time;durP1;ratioP1;P1;durP2;ratioP2;P2;SDS_P1;SDS_P2;PMS_P1;PMS_P2;Temp;Humidity;BMP_temperature;BMP_pressure;BME280_temperature;BME280_humidity;BME280_pressure;Samples;Min_cycle;Max_cycle;Signal;HPM_P1;HPM_P2
2021/05/26 00:01:34;;;;;;;;;;;;;;;17.19;59.94;100496.34;1752789;79;21007;-84
2021/05/26 00:04:00;;;;;;;0.78;0.72;;;;;;;17.14;60.09;100486.81;1777368;80;20387;-83
2021/05/26 00:06:27;;;;;;;6.17;1.25;;;;;;;17.06;60.26;100493.84;1782606;79;21002;-83
2021/05/26 00:08:53;;;;;;;1.65;1.17;;;;;;;17.04;60.30;100493.24;1765796;80;21146;-83
2021/05/26 00:11:19;;;;;;;3.33;1.60;;;;;;;17.01;60.50;100490.99;1781854;79;21071;-84
2021/05/26 00:13:48;;;;;;;1.85;1.55;;;;;;;16.98;60.74;100500.36;1767824;79;21663;-81
2021/05/26 00:16:16;;;;;;;2.27;1.40;;;;;;;16.91;61.23;100499.11;1783062;80;21142;-82
2021/05/26 00:18:44;;;;;;;1.65;1.55;;;;;;;16.89;61.47;100502.53;1769266;79;21142;-82
2021/05/26 00:21:10;;;;;;;3.92;1.67;;;;;;;16.91;61.48;100500.95;1780281;80;21063;-82
2021/05/26 00:23:37;;;;;;;3.50;1.67;;;;;;;16.85;61.73;100504.03;1790875;79;21050;-81
2021/05/26 00:26:04;;;;;;;4.42;2.00;;;;;;;16.78;62.13;100503.25;1782817;80;21110;-79
2021/05/26 00:28:31;;;;;;;2.35;1.77;;;;;;;16.72;62.24;100510.89;1782419;80;21125;-83
2021/05/26 00:30:59;;;;;;;1.77;1.67;;;;;;;16.67;62.41;100506.70;1775796;79;21161;-83
2021/05/26 00:33:28;;;;;;;1.77;1.55;;;;;;;16.70;62.70;100513.80;1776990;80;21063;-84
2021/05/26 00:35:53;;;;;;;4.15;2.20;;;;;;;16.72;62.56;100508.20;1775868;80;21075;-83
2021/05/26 00:38:21;;;;;;;3.22;2.10;;;;;;;16.64;63.06;100509.85;1763317;80;21205;-82
2021/05/26 00:40:48;;;;;;;3.37;2.77;;;;;;;16.53;63.40;100496.61;1786839;79;21162;-83
2021/05/26 00:43:17;;;;;;;2.80;2.15;;;;;;;16.52;63.52;100505.22;1771033;80;21611;-82
2021/05/26 00:45:45;;;;;;;1.80;1.70;;;;;;;16.54;63.52;100496.39;1763290;80;21047;-82
2021/05/26 00:48:11;;;;;;;2.47;2.22;;;;;;;16.62;63.27;100495.80;1772630;80;21057;-83
2021/05/26 00:50:39;;;;;;;1.82;1.72;;;;;;;16.59;63.31;100496.23;1769901;79;21731;-83
2021/05/26 00:53:09;;;;;;;2.10;2.00;;;;;;;16.57;63.16;100491.61;1772712;79;21047;-83
2021/05/26 00:55:37;;;;;;;2.83;2.20;;;;;;;16.55;63.44;100497.20;1780758;78;21027;-82
2021/05/26 00:58:06;;;;;;;5.20;1.92;;;;;;;16.31;63.73;100470.16;1785186;80;21177;-82
2021/05/26 01:00:37;;;;;;;1.92;1.57;;;;;;;16.48;63.80;100490.57;1784572;79;21728;-81
2021/05/26 01:03:06;;;;;;;4.40;2.00;;;;;;;16.53;63.75;100488.54;1772251;80;21071;-81
2021/05/26 01:05:35;;;;;;;2.50;2.30;;;;;;;16.50;63.86;100489.82;1777985;79;21126;-82
2021/05/26 01:08:02;;;;;;;3.17;1.62;;;;;;;16.46;63.99;100489.97;1780715;80;21340;-82
2021/05/26 01:10:31;;;;;;;2.02;1.92;;;;;;;16.43;64.18;100493.63;1755768;80;21213;-83
2021/05/26 01:13:01;;;;;;;2.05;1.82;;;;;;;16.42;64.27;100493.31;1771766;77;21095;-81
2021/05/26 01:15:28;;;;;;;2.80;2.60;;;;;;;16.47;64.08;100494.29;1777728;79;21149;-82
2021/05/26 01:17:54;;;;;;;3.55;2.60;;;;;;;16.48;64.12;100489.22;1774876;80;21103;-81
2021/05/26 01:20:29;;;;;;;1.90;1.80;;;;;;;16.43;64.26;100486.91;1771395;80;21062;-81
2021/05/26 01:22:59;;;;;;;2.30;1.95;;;;;;;16.40;64.35;100483.30;1777290;79;21151;-81
2021/05/26 01:25:28;;;;;;;4.50;1.95;;;;;;;16.37;64.56;100487.27;1781073;80;21747;-81
2021/05/26 01:27:59;;;;;;;2.30;1.70;;;;;;;16.42;64.52;100485.24;1773721;80;21086;-81
2021/05/26 01:30:25;;;;;;;2.67;2.10;;;;;;;16.44;64.55;100481.27;1774657;80;21054;-82
2021/05/26 01:32:53;;;;;;;2.37;1.95;;;;;;;16.42;64.57;100471.80;1782507;79;21043;-81
2021/05/26 01:35:21;;;;;;;4.92;2.72;;;;;;;16.39;64.82;100471.73;1779609;79;21095;-80
2021/05/26 01:37:48;;;;;;;10.72;2.65;;;;;;;16.34;65.21;100467.53;1781540;79;21714;-81
2021/05/26 01:40:18;;;;;;;4.08;2.00;;;;;;;16.34;65.17;100468.34;1771127;80;21411;-81
2021/05/26 01:42:46;;;;;;;3.25;2.37;;;;;;;16.39;65.00;100470.38;1775372;80;21051;-81
2021/05/26 01:45:17;;;;;;;6.72;2.17;;;;;;;16.37;65.19;100465.75;1743066;80;21583;-81
2021/05/26 01:47:49;;;;;;;6.87;2.50;;;;;;;16.33;65.32;100469.91;1721134;80;21186;-80
2021/05/26 01:50:21;;;;;;;3.42;2.05;;;;;;;16.28;65.48;100476.50;1722503;81;21045;-82
2021/05/26 01:53:02;;;;;;;2.95;2.02;;;;;;;16.23;65.75;100474.99;1703742;82;21125;-81
2021/05/26 01:55:29;;;;;;;5.35;1.72;;;;;;;16.27;65.50;100477.53;1678615;84;21097;-81
2021/05/26 01:57:58;;;;;;;2.12;2.02;;;;;;;16.28;65.57;100475.97;1720086;81;21150;-81
2021/05/26 02:00:27;;;;;;;2.50;1.75;;;;;;;16.22;65.83;100471.98;1745815;80;21656;-83
2021/05/26 02:02:53;;;;;;;2.58;1.82;;;;;;;16.18;65.88;100468.11;1749570;80;21569;-82
2021/05/26 02:05:22;;;;;;;4.05;1.98;;;;;;;16.14;66.01;100467.72;1710161;81;21053;-83
2021/05/26 02:07:52;;;;;;;2.40;1.60;;;;;;;16.14;66.11;100471.26;1701699;82;21135;-80
2021/05/26 02:12:20;;;;;;;3.98;1.30;;;;;;;16.21;65.93;100473.05;1716323;82;21119;-80
2021/05/26 02:12:49;;;;;;;2.52;2.33;;;;;;;16.23;65.95;100466.39;1714910;82;21143;-81
2021/05/26 02:15:21;;;;;;;5.30;2.12;;;;;;;16.23;65.89;100466.92;1707065;83;21115;-81
2021/05/26 02:17:47;;;;;;;2.45;1.75;;;;;;;16.23;65.91;100465.58;1746281;80;21043;-79
2021/05/26 02:20:13;;;;;;;4.97;1.47;;;;;;;16.24;65.80;100463.20;1712936;82;21190;-80
2021/05/26 02:22:40;;;;;;;5.20;1.80;;;;;;;16.30;65.63;100455.05;1708752;80;21183;-80
2021/05/26 02:25:08;;;;;;;2.60;2.40;;;;;;;16.42;65.40;100452.97;1744703;80;21114;-80
2021/05/26 02:27:34;;;;;;;7.92;1.92;;;;;;;16.41;65.50;100448.11;1740430;80;21597;-81
2021/05/26 02:30:04;;;;;;;2.25;2.10;;;;;;;16.34;65.75;100452.21;1697909;82;21652;-75
2021/05/26 02:32:30;;;;;;;2.35;2.15;;;;;;;16.29;65.86;100455.27;1752435;81;21653;-76
2021/05/26 02:34:57;;;;;;;1.87;1.77;;;;;;;16.27;66.00;100456.83;1734749;81;22159;-74
2021/05/26 02:37:26;;;;;;;2.33;2.20;;;;;;;16.32;65.88;100458.87;1742394;81;21128;-73
2021/05/26 02:39:52;;;;;;;2.42;1.77;;;;;;;16.39;65.75;100457.44;1687806;83;21167;-74
2021/05/26 02:42:20;;;;;;;3.02;2.70;;;;;;;16.35;65.78;100463.28;1723744;81;21125;-74
2021/05/26 02:44:46;;;;;;;6.65;2.80;;;;;;;16.33;66.05;100461.84;1715314;81;21023;-74
2021/05/26 02:47:13;;;;;;;2.95;2.62;;;;;;;16.26;66.34;100467.30;1772406;79;21194;-74
2021/05/26 02:49:39;;;;;;;3.50;2.65;;;;;;;16.32;66.22;100473.12;1776892;79;21099;-75
2021/05/26 02:52:06;;;;;;;2.42;2.08;;;;;;;16.50;65.86;100468.80;1787649;79;21050;-74
2021/05/26 02:54:32;;;;;;;2.05;1.95;;;;;;;16.76;65.37;100464.97;1775058;79;21208;-74
2021/05/26 02:56:59;;;;;;;2.67;1.90;;;;;;;17.06;64.51;100465.56;1794178;79;21114;-76
2021/05/26 02:59:35;;;;;;;3.30;2.05;;;;;;;17.43;63.89;100466.27;1681948;83;21115;-76
2021/05/26 03:02:07;;;;;;;5.05;2.02;;;;;;;17.91;62.47;100469.88;1733192;80;21082;-75
2021/05/26 03:04:41;;;;;;;3.77;1.77;;;;;;;18.31;60.77;100475.94;1734021;81;21082;-78
2021/05/26 03:07:08;;;;;;;2.45;2.22;;;;;;;18.57;59.71;100471.08;1743501;81;21027;-76
2021/05/26 03:09:35;;;;;;;3.42;1.40;;;;;;;18.79;59.42;100468.56;1741619;81;21789;-75
2021/05/26 03:12:02;;;;;;;5.20;1.47;;;;;;;18.98;58.50;100469.23;1734854;81;21110;-75
2021/05/26 03:14:36;;;;;;;2.12;1.92;;;;;;;19.17;58.06;100469.31;1721029;80;21090;-77
2021/05/26 03:17:04;;;;;;;3.00;1.72;;;;;;;19.45;57.00;100459.55;1738923;81;21116;-76
2021/05/26 03:19:33;;;;;;;2.12;1.00;;;;;;;19.71;56.54;100462.68;1705898;81;21214;-76
2021/05/26 03:22:13;;;;;;;3.27;1.65;;;;;;;19.96;55.63;100456.88;1724488;81;21067;-77
2021/05/26 03:24:54;;;;;;;4.30;1.60;;;;;;;20.14;55.11;100462.02;1749284;80;21133;-74
2021/05/26 03:27:23;;;;;;;6.90;1.62;;;;;;;20.22;54.89;100451.30;1728031;81;21608;-84
2021/05/26 03:29:49;;;;;;;2.00;1.42;;;;;;;20.19;54.63;100432.84;1737440;81;21438;-86
2021/05/26 03:32:15;;;;;;;1.62;0.93;;;;;;;20.22;54.94;100442.62;1734495;80;21090;-83
2021/05/26 03:34:42;;;;;;;1.30;0.85;;;;;;;20.30;54.30;100448.14;1711424;82;21078;-86
2021/05/26 03:37:14;;;;;;;5.70;1.67;;;;;;;20.23;54.66;100452.95;1728098;81;21107;-85
2021/05/26 03:39:40;;;;;;;6.35;2.20;;;;;;;20.19;54.56;100451.78;1727718;81;21590;-84
2021/05/26 03:42:07;;;;;;;4.40;1.82;;;;;;;19.96;55.12;100454.98;1691406;82;21600;-84
2021/05/26 03:44:33;;;;;;;3.12;2.60;;;;;;;19.67;55.91;100450.72;1706980;81;21019;-83
2021/05/26 03:47:00;;;;;;;2.12;1.60;;;;;;;19.23;57.22;100450.80;1727953;82;21043;-81
2021/05/26 03:49:28;;;;;;;2.25;1.77;;;;;;;18.96;58.06;100449.20;1736892;81;21077;-84
2021/05/26 03:51:54;;;;;;;;;;;;;;;18.79;58.93;100469.38;1719740;81;21012;-85
2021/05/26 03:54:21;;;;;;;4.83;2.35;;;;;;;18.64;59.48;100477.16;1694335;83;20178;-86
2021/05/26 03:56:48;;;;;;;3.55;1.95;;;;;;;18.49;59.96;100483.06;1727452;81;21123;-86
2021/05/26 03:59:16;;;;;;;1.87;1.62;;;;;;;18.49;60.55;100498.72;1747557;80;21085;-85
2021/05/26 04:01:44;;;;;;;3.58;1.30;;;;;;;18.83;59.98;100490.00;1694614;82;21046;-86
2021/05/26 04:04:12;;;;;;;1.45;1.17;;;;;;;19.10;59.08;100490.28;1708781;82;21596;-86
2021/05/26 04:06:38;;;;;;;2.80;1.15;;;;;;;19.14;58.71;100495.48;1725286;81;21122;-85
2021/05/26 04:09:05;;;;;;;1.50;1.40;;;;;;;19.05;59.05;100498.28;1706021;82;21165;-86
2021/05/26 04:11:34;;;;;;;3.85;1.75;;;;;;;18.94;59.69;100506.70;1722964;81;21083;-84
2021/05/26 04:14:16;;;;;;;3.08;1.70;;;;;;;18.98;59.78;100507.05;1722732;81;21154;-85
2021/05/26 04:16:56;;;;;;;5.78;1.25;;;;;;;19.11;59.17;100511.35;1718605;81;21212;-86
2021/05/26 04:19:26;;;;;;;1.90;1.45;;;;;;;19.31;59.09;100501.44;1725665;80;21122;-87
2021/05/26 04:21:54;;;;;;;1.60;1.37;;;;;;;19.59;58.86;100513.59;1740505;80;21663;-87
2021/05/26 04:24:22;;;;;;;3.87;1.98;;;;;;;20.17;57.82;100518.36;1665410;83;22060;-86
2021/05/26 04:26:49;;;;;;;1.47;1.27;;;;;;;20.53;56.93;100516.67;1734166;82;21106;-87
2021/05/26 04:29:15;;;;;;;;;;;;;;;20.51;56.39;100522.88;1731138;81;21677;-84
2021/05/26 04:31:44;;;;;;;3.45;2.00;;;;;;;20.24;57.01;100523.58;1724047;82;20257;-84
2021/05/26 04:34:11;;;;;;;1.90;1.80;;;;;;;19.92;59.16;100532.28;1781987;78;21380;-87
2021/05/26 04:36:39;;;;;;;9.03;3.75;;;;;;;19.60;60.48;100525.23;1790229;79;21102;-86
2021/05/26 04:39:05;;;;;;;3.70;2.65;;;;;;;19.20;61.06;100528.28;1800288;79;21146;-88
2021/05/26 04:41:32;;;;;;;4.17;2.83;;;;;;;18.88;62.34;100527.11;1800186;78;21043;-86
2021/05/26 04:43:57;;;;;;;;;;;;;;;18.70;62.60;100521.29;1786804;79;21066;-85
2021/05/26 04:46:25;;;;;;;6.80;3.17;;;;;;;18.58;63.51;100520.78;1809468;79;20132;-86
2021/05/26 04:48:52;;;;;;;13.75;3.92;;;;;;;18.42;64.03;100514.74;1796951;79;20988;-87
2021/05/26 04:51:19;;;;;;;4.05;3.50;;;;;;;18.29;64.17;100512.59;1785121;79;21670;-90
2021/05/26 04:53:48;;;;;;;11.10;2.80;;;;;;;18.20;64.32;100517.23;1789051;78;21609;-84
2021/05/26 04:56:14;;;;;;;6.05;2.62;;;;;;;18.17;64.76;100523.09;1795220;79;21051;-87
2021/05/26 04:58:42;;;;;;;5.62;2.60;;;;;;;18.21;64.47;100529.12;1797430;79;21098;-79
2021/05/26 05:01:09;;;;;;;3.87;3.08;;;;;;;18.28;64.55;100523.62;1799693;79;21011;-79
2021/05/26 05:03:37;;;;;;;4.30;2.75;;;;;;;18.28;64.26;100509.59;1792760;79;21050;-79
2021/05/26 05:06:03;;;;;;;8.78;2.83;;;;;;;18.26;63.94;100507.66;1796265;79;21046;-81
2021/05/26 05:08:30;;;;;;;5.17;3.08;;;;;;;18.13;64.83;100511.13;1798336;78;21069;-81
2021/05/26 05:10:56;;;;;;;2.87;2.62;;;;;;;18.02;65.25;100512.22;1789958;78;21145;-82
2021/05/26 05:13:23;;;;;;;3.52;2.60;;;;;;;17.98;65.59;100512.94;1800447;78;21423;-80
2021/05/26 05:15:49;;;;;;;4.65;3.30;;;;;;;17.90;65.52;100516.80;1797879;79;21094;-81
2021/05/26 05:18:15;;;;;;;3.35;3.02;;;;;;;17.82;66.64;100518.43;1801770;79;21094;-80
2021/05/26 05:20:41;;;;;;;4.92;2.35;;;;;;;17.75;66.56;100523.95;1802000;78;21667;-81
2021/05/26 05:23:07;;;;;;;6.03;2.90;;;;;;;17.76;66.91;100535.55;1817221;77;21083;-77
2021/05/26 05:25:33;;;;;;;;;;;;;;;17.79;67.24;100539.95;1798744;78;21123;-77
2021/05/26 05:27:59;;;;;;;3.72;3.42;;;;;;;17.78;67.03;100535.63;1803328;78;20227;-78
2021/05/26 05:30:27;;;;;;;6.70;3.98;;;;;;;17.73;66.67;100534.67;1797864;79;21038;-82
2021/05/26 05:32:53;;;;;;;;;;;;;;;17.71;67.39;100538.95;1795332;79;21019;-82
2021/05/26 05:35:19;;;;;;;5.30;4.47;;;;;;;17.70;67.28;100542.67;1810990;78;20226;-83
2021/05/26 05:37:45;;;;;;;5.67;3.92;;;;;;;17.57;67.72;100546.38;1815116;78;21110;-84
2021/05/26 05:40:11;;;;;;;;;;;;;;;17.59;67.71;100544.81;1806316;78;21055;-86
2021/05/26 05:42:37;;;;;;;5.20;3.60;;;;;;;17.64;67.47;100549.81;1791850;78;20209;-86
2021/05/26 05:45:06;;;;;;;8.68;4.33;;;;;;;17.64;67.81;100543.08;1785958;77;21036;-85
2021/05/26 05:47:34;;;;;;;7.40;3.22;;;;;;;17.66;67.57;100535.58;1761265;80;21054;-84
2021/05/26 05:50:01;;;;;;;7.40;3.02;;;;;;;17.64;67.37;100524.20;1751139;80;21039;-85
2021/05/26 05:52:28;;;;;;;2.92;2.72;;;;;;;17.68;67.28;100525.91;1759041;80;22220;-85
2021/05/26 05:54:54;;;;;;;4.12;3.17;;;;;;;17.76;67.21;100531.50;1746624;80;21165;-87
2021/05/26 05:57:22;;;;;;;3.50;2.83;;;;;;;17.91;66.87;100540.00;1804201;79;21714;-84
2021/05/26 05:59:49;;;;;;;8.65;3.08;;;;;;;18.04;66.46;100539.78;1753156;80;21107;-83
2021/05/26 06:02:16;;;;;;;6.42;3.60;;;;;;;18.24;66.05;100545.38;1751462;80;21004;-84
2021/05/26 06:04:42;;;;;;;4.47;3.77;;;;;;;18.41;65.59;100549.02;1735017;80;21602;-83
2021/05/26 06:07:08;;;;;;;12.82;3.83;;;;;;;18.52;65.16;100547.38;1755912;80;21164;-84
2021/05/26 06:09:35;;;;;;;;;;;;;;;18.63;64.63;100552.48;1725713;82;21097;-85
2021/05/26 06:12:01;;;;;;;7.70;4.37;;;;;;;18.59;64.25;100554.83;1756052;81;20283;-87
2021/05/26 06:14:27;;;;;;;;;;;;;;;18.43;64.88;100552.30;1766665;80;21047;-86
2021/05/26 06:16:53;;;;;;;7.65;4.55;;;;;;;18.41;65.23;100557.64;1727777;80;20243;-83
2021/05/26 06:19:19;;;;;;;8.68;3.42;;;;;;;18.45;65.01;100552.06;1757207;80;21736;-86
2021/05/26 06:21:46;;;;;;;11.78;3.60;;;;;;;18.69;64.74;100552.88;1786452;79;21080;-83
2021/05/26 06:24:12;;;;;;;9.83;3.40;;;;;;;18.99;64.51;100555.97;1752540;79;21086;-83
2021/05/26 06:26:38;;;;;;;9.23;3.15;;;;;;;19.37;63.62;100551.84;1722534;82;21123;-85
2021/05/26 06:29:06;;;;;;;4.58;2.87;;;;;;;19.68;61.95;100545.64;1733398;81;21104;-82
2021/05/26 06:31:33;;;;;;;11.43;4.50;;;;;;;19.93;61.51;100546.11;1730890;81;21206;-85
2021/05/26 06:33:59;;;;;;;9.70;3.33;;;;;;;20.17;60.53;100552.70;1744230;80;21075;-88
2021/05/26 06:36:25;;;;;;;8.68;3.17;;;;;;;20.50;59.49;100555.09;1735848;81;21671;-87
2021/05/26 06:38:52;;;;;;;8.95;3.08;;;;;;;20.72;57.43;100553.27;1738365;81;22085;-87
2021/05/26 06:41:18;;;;;;;;;;;;;;;20.89;57.61;100557.80;1750310;80;21047;-87
2021/05/26 06:43:49;;;;;;;2.60;2.37;;;;;;;21.05;58.01;100559.63;1759604;80;20202;-89
2021/05/26 06:46:15;;;;;;;4.50;2.33;;;;;;;21.13;56.95;100568.66;1784145;79;21054;-89
2021/05/26 06:48:41;;;;;;;;;;;;;;;21.14;55.86;100560.02;1775161;79;21007;-89
2021/05/26 06:51:07;;;;;;;8.00;2.35;;;;;;;20.94;56.54;100560.58;1783931;79;20198;-89
2021/05/26 06:53:33;;;;;;;3.22;1.92;;;;;;;20.75;56.90;100574.42;1785845;79;21069;-91
2021/05/26 06:55:59;;;;;;;;;;;;;;;20.57;57.47;100573.34;1807969;79;21058;-88
2021/05/26 06:58:26;;;;;;;8.23;1.92;;;;;;;20.34;57.93;100567.06;1804137;79;20133;-89
2021/05/26 07:00:53;;;;;;;;;;;;;;;20.16;58.72;100569.48;1791233;79;21051;-87
2021/05/26 07:03:21;;;;;;;6.33;2.52;;;;;;;20.14;58.79;100574.31;1773838;80;20335;-90
2021/05/26 07:05:48;;;;;;;5.72;1.67;;;;;;;20.08;59.06;100573.11;1771176;79;21167;-88
2021/05/26 07:08:14;;;;;;;4.35;1.60;;;;;;;20.02;59.57;100574.41;1771427;80;21053;-87
2021/05/26 07:10:42;;;;;;;;;;;;;;;20.01;59.33;100567.34;1769990;79;21595;-89
2021/05/26 07:13:12;;;;;;;2.27;1.67;;;;;;;20.03;59.44;100563.85;1800139;78;20187;-86
2021/05/26 07:15:39;;;;;;;3.50;1.62;;;;;;;20.02;59.66;100566.28;1805847;78;22568;-88
2021/05/26 07:18:09;;;;;;;3.02;1.77;;;;;;;20.03;59.81;100569.27;1803597;79;21019;-87
2021/05/26 07:20:43;;;;;;;7.37;2.37;;;;;;;20.13;59.63;100578.61;1809967;78;21118;-89
2021/05/26 07:23:07;;;;;;;5.28;2.77;;;;;;;20.30;59.56;100569.95;1776333;79;21056;-87
2021/05/26 07:25:35;;;;;;;3.80;1.62;;;;;;;20.46;58.61;100575.62;1741309;80;21162;-87
2021/05/26 07:28:01;;;;;;;4.10;1.60;;;;;;;20.62;58.50;100585.61;1762715;80;21177;-87
2021/05/26 07:30:30;;;;;;;;;;;;;;;20.80;58.04;100594.81;1750578;80;21072;-88
2021/05/26 07:32:58;;;;;;;3.12;1.50;;;;;;;20.92;57.68;100594.69;1779035;80;20583;-90
2021/05/26 07:35:24;;;;;;;3.50;2.05;;;;;;;20.96;57.83;100585.53;1784653;78;21052;-90
2021/05/26 07:37:52;;;;;;;1.70;1.52;;;;;;;21.13;56.62;100588.18;1789724;77;21880;-89
2021/05/26 07:40:18;;;;;;;1.75;1.10;;;;;;;21.22;56.28;100592.09;1777468;79;21048;-89
2021/05/26 07:42:45;;;;;;;7.65;1.35;;;;;;;21.26;56.39;100593.77;1775583;78;21176;-90
2021/05/26 07:45:12;;;;;;;3.77;1.30;;;;;;;21.33;56.26;100585.72;1800469;79;21860;-87
2021/05/26 07:47:38;;;;;;;4.83;2.37;;;;;;;21.43;55.89;100586.36;1798632;78;21072;-88
2021/05/26 07:50:06;;;;;;;5.12;2.12;;;;;;;21.51;55.72;100591.38;1815340;79;20999;-88
2021/05/26 07:52:35;;;;;;;2.95;1.35;;;;;;;21.57;56.09;100592.25;1803799;77;21079;-89
2021/05/26 07:55:01;;;;;;;3.90;2.02;;;;;;;21.60;55.68;100590.91;1785189;78;21179;-89
2021/05/26 07:57:27;;;;;;;7.08;2.50;;;;;;;21.60;55.60;100603.12;1778796;78;21149;-90
2021/05/26 07:59:54;;;;;;;4.50;2.22;;;;;;;21.54;55.77;100595.46;1797524;78;21076;-92
2021/05/26 08:02:20;;;;;;;;;;;;;;;21.47;55.65;100592.13;1795014;78;21056;-90
2021/05/26 08:04:48;;;;;;;1.10;0.95;;;;;;;21.41;55.67;100603.97;1805913;78;20230;-89
2021/05/26 08:07:15;;;;;;;3.20;0.80;;;;;;;21.28;55.50;100607.34;1759569;80;21036;-91
2021/05/26 08:09:41;;;;;;;5.42;1.15;;;;;;;21.21;55.23;100606.73;1726793;81;21115;-90
2021/05/26 08:12:09;;;;;;;3.30;0.88;;;;;;;21.13;55.19;100607.16;1741164;81;21111;-91
2021/05/26 08:14:37;;;;;;;4.58;1.10;;;;;;;21.05;55.71;100604.34;1763789;77;21031;-90
2021/05/26 08:17:06;;;;;;;4.65;1.10;;;;;;;21.01;55.88;100611.34;1784606;78;21052;-88
2021/05/26 08:19:33;;;;;;;3.10;0.70;;;;;;;20.90;56.30;100613.64;1789078;79;21098;-91
2021/05/26 08:22:01;;;;;;;2.37;1.05;;;;;;;20.76;56.97;100618.06;1787139;79;21090;-87
2021/05/26 08:24:27;;;;;;;3.17;0.95;;;;;;;20.68;57.11;100617.14;1794410;78;21903;-88
2021/05/26 08:26:54;;;;;;;4.15;0.93;;;;;;;20.65;57.40;100619.52;1798411;78;21051;-89
2021/05/26 08:29:26;;;;;;;1.17;0.85;;;;;;;20.61;57.71;100615.95;1798284;78;21146;-93
2021/05/26 08:31:57;;;;;;;3.85;1.20;;;;;;;20.57;57.81;100613.42;1809335;78;21003;-93
2021/05/26 08:34:25;;;;;;;1.12;1.05;;;;;;;20.50;57.91;100614.66;1804625;78;21978;-91
2021/05/26 08:36:57;;;;;;;4.37;1.35;;;;;;;20.41;58.01;100612.36;1806847;78;21099;-91
2021/05/26 08:39:34;;;;;;;3.70;1.40;;;;;;;20.35;58.63;100620.11;1805542;78;21817;-95
2021/05/26 08:41:59;;;;;;;3.90;2.05;;;;;;;20.28;58.90;100621.34;1795871;79;21091;-92
2021/05/26 08:44:29;;;;;;;3.98;1.32;;;;;;;20.24;59.22;100618.31;1790420;77;21613;-93
2021/05/26 08:46:57;;;;;;;3.05;1.27;;;;;;;20.24;59.39;100622.37;1795993;79;21032;-93
2021/05/26 08:49:27;;;;;;;2.33;1.20;;;;;;;20.28;59.28;100620.81;1795041;79;21600;-94
2021/05/26 08:51:57;;;;;;;2.10;1.60;;;;;;;20.28;59.38;100609.17;1799958;79;21011;-91
2021/05/26 08:54:24;;;;;;;2.02;1.05;;;;;;;20.27;60.22;100613.77;1796717;79;21119;-93
2021/05/26 08:56:49;;;;;;;;;;;;;;;20.25;59.92;100611.84;1792132;79;21293;-92
2021/05/26 08:59:17;;;;;;;1.50;1.40;;;;;;;20.25;59.68;100623.19;1789676;79;20204;-91
2021/05/26 09:01:48;;;;;;;3.15;1.65;;;;;;;20.18;60.22;100626.87;1780400;79;20991;-93
2021/05/26 09:04:31;;;;;;;4.72;2.10;;;;;;;20.14;60.22;100628.98;1787666;78;21043;-92
2021/05/26 09:07:13;;;;;;;2.25;1.98;;;;;;;20.08;60.61;100635.34;1789775;79;21142;-86
2021/05/26 09:09:55;;;;;;;3.50;1.80;;;;;;;19.98;61.11;100638.16;1777727;79;21099;-92
2021/05/26 09:12:39;;;;;;;4.25;1.92;;;;;;;19.91;61.00;100640.73;1785023;78;21150;-89
2021/05/26 09:15:17;;;;;;;1.57;1.47;;;;;;;19.90;61.11;100637.21;1795294;78;21059;-92
2021/05/26 09:17:49;;;;;;;3.25;2.12;;;;;;;19.82;61.54;100630.31;1789454;79;21118;-91
2021/05/26 09:20:30;;;;;;;4.62;2.90;;;;;;;19.75;61.57;100629.63;1791066;78;21238;-88
2021/05/26 09:23:06;;;;;;;3.65;2.15;;;;;;;19.70;61.82;100636.80;1784342;78;21016;-89
2021/05/26 09:25:37;;;;;;;2.22;1.75;;;;;;;19.65;62.10;100638.35;1783789;79;21131;-92
2021/05/26 09:31:29;;;;;;;2.60;2.40;;;;;;;19.60;62.59;100640.14;1891659;74;22135;-92
2021/05/26 09:33:56;;;;;;;6.00;2.52;;;;;;;19.52;62.77;100639.99;1851725;75;21565;-85
2021/05/26 09:36:27;;;;;;;3.60;3.35;;;;;;;19.45;63.13;100640.66;1806097;77;21674;-87
2021/05/26 09:39:00;;;;;;;3.10;2.87;;;;;;;19.43;63.27;100640.08;1833473;76;21110;-87
2021/05/26 09:41:35;;;;;;;3.47;2.42;;;;;;;19.47;63.54;100645.83;1827739;77;21015;-87
2021/05/26 09:44:10;;;;;;;4.50;2.35;;;;;;;19.48;63.46;100643.40;1828811;77;21036;-89
2021/05/26 09:46:43;;;;;;;3.17;2.90;;;;;;;19.49;63.94;100641.00;1850329;77;21042;-87
2021/05/26 09:49:17;;;;;;;5.30;2.90;;;;;;;19.45;63.96;100643.36;1834174;76;21628;-88
2021/05/26 09:51:46;;;;;;;4.53;3.42;;;;;;;19.44;63.91;100649.84;1848574;77;21106;-87
2021/05/26 09:54:30;;;;;;;4.03;3.37;;;;;;;19.47;64.03;100653.94;1811636;77;21198;-86
2021/05/26 09:57:07;;;;;;;6.55;4.58;;;;;;;19.44;63.86;100649.84;1823832;77;21217;-86
2021/05/26 09:59:36;;;;;;;7.00;3.87;;;;;;;19.39;64.11;100649.19;1827920;77;21122;-87
2021/05/26 10:02:06;;;;;;;8.95;3.62;;;;;;;19.36;64.43;100648.84;1815791;77;21084;-86
2021/05/26 10:04:31;;;;;;;3.67;3.37;;;;;;;19.33;64.85;100650.16;1793729;78;21181;-86
2021/05/26 10:07:16;;;;;;;5.50;3.58;;;;;;;19.29;65.73;100658.95;1826674;77;21160;-87
2021/05/26 10:09:47;;;;;;;3.35;3.10;;;;;;;19.20;66.08;100658.53;1832790;77;21114;-86
2021/05/26 10:12:21;;;;;;;3.92;3.08;;;;;;;19.11;66.58;100661.30;1830455;76;21205;-86
2021/05/26 10:14:49;;;;;;;5.17;2.58;;;;;;;19.05;66.81;100661.72;1792246;78;21618;-87
2021/05/26 10:17:24;;;;;;;3.47;3.17;;;;;;;19.04;67.01;100673.06;1830579;77;21060;-86
2021/05/26 10:19:49;;;;;;;3.65;2.80;;;;;;;19.00;66.98;100671.86;1829263;77;21063;-87
2021/05/26 10:22:18;;;;;;;3.15;2.87;;;;;;;18.98;67.19;100670.47;1835114;77;21105;-87
2021/05/26 10:24:45;;;;;;;3.40;3.20;;;;;;;18.95;67.48;100672.27;1804638;78;21232;-85
2021/05/26 10:27:37;;;;;;;3.67;3.30;;;;;;;18.96;67.56;100673.94;1764992;79;21066;-85
2021/05/26 10:30:07;;;;;;;7.55;3.35;;;;;;;18.99;67.21;100671.59;1767024;79;21112;-87
2021/05/26 10:32:50;;;;;;;4.42;4.08;;;;;;;19.07;67.07;100665.00;1792769;79;21087;-87
2021/05/26 10:35:17;;;;;;;3.83;3.62;;;;;;;19.11;67.48;100666.16;1757878;80;21070;-87
2021/05/26 10:37:45;;;;;;;5.67;3.98;;;;;;;19.11;67.70;100666.16;1760989;79;21094;-88
2021/05/26 10:40:33;;;;;;;3.80;3.50;;;;;;;19.11;67.90;100673.45;1753194;80;21091;-84
2021/05/26 10:43:22;;;;;;;5.20;4.10;;;;;;;19.15;68.30;100672.73;1752061;79;21596;-84
2021/05/26 10:45:50;;;;;;;4.17;3.75;;;;;;;19.20;68.66;100673.39;1757722;81;21170;-88
2021/05/26 10:48:42;;;;;;;4.78;3.70;;;;;;;19.15;69.80;100674.63;1747157;80;21011;-88
2021/05/26 10:51:09;;;;;;;4.45;2.92;;;;;;;19.02;70.60;100669.77;1773960;79;21054;-88
2021/05/26 10:53:49;;;;;;;4.33;3.58;;;;;;;18.90;71.28;100666.78;1749245;80;21660;-85
2021/05/26 10:56:37;;;;;;;4.53;3.67;;;;;;;18.78;71.93;100671.63;1732499;81;21156;-85
2021/05/26 10:59:13;;;;;;;4.73;4.30;;;;;;;18.65;72.77;100671.31;1753638;79;21156;-88
2021/05/26 11:02:10;;;;;;;5.47;4.65;;;;;;;18.61;72.95;100678.75;1710028;81;21735;-87
2021/05/26 11:04:40;;;;;;;4.87;4.47;;;;;;;18.61;73.24;100671.50;1750345;80;21155;-84
2021/05/26 11:07:29;;;;;;;4.42;4.12;;;;;;;18.62;73.61;100679.88;1733129;80;21393;-85
2021/05/26 11:10:07;;;;;;;4.80;4.50;;;;;;;18.64;73.65;100678.30;1737390;81;21118;-85
2021/05/26 11:12:58;;;;;;;19.05;5.10;;;;;;;18.64;74.13;100674.25;1742961;81;21749;-87
2021/05/26 11:15:45;;;;;;;4.72;4.25;;;;;;;18.58;74.28;100667.91;1729206;81;21699;-87
2021/05/26 11:18:27;;;;;;;4.17;3.85;;;;;;;18.53;74.51;100671.00;1718089;82;21156;-85
2021/05/26 11:20:50;;;;;;;5.87;3.92;;;;;;;18.50;75.00;100669.61;1706035;83;21106;-86
2021/05/26 11:23:16;;;;;;;4.97;3.40;;;;;;;18.49;75.33;100663.36;1750487;78;21154;-83
2021/05/26 11:25:56;;;;;;;4.42;4.03;;;;;;;18.51;75.44;100655.03;1742039;80;21118;-84
2021/05/26 11:28:32;;;;;;;4.12;3.90;;;;;;;18.54;75.37;100652.42;1747449;81;21102;-85
2021/05/26 11:31:11;;;;;;;3.63;3.20;;;;;;;18.53;75.17;100654.81;1748863;81;21068;-88
2021/05/26 11:33:39;;;;;;;6.83;3.27;;;;;;;18.53;74.75;100652.92;1751272;80;21134;-86
2021/05/26 11:36:07;;;;;;;2.55;2.37;;;;;;;18.60;74.38;100650.13;1742095;81;21147;-84
2021/05/26 11:38:34;;;;;;;2.75;2.55;;;;;;;18.66;73.64;100652.70;1778216;79;21816;-86
2021/05/26 11:41:02;;;;;;;5.20;3.17;;;;;;;18.73;73.29;100653.13;1747237;79;21116;-84
2021/05/26 11:43:33;;;;;;;3.00;2.80;;;;;;;18.72;73.16;100653.64;1734309;81;21603;-85